Terminal Aerodrome Forecast
Issued by NWS Topeka, KS

Home | Current Version | Previous Version | Text Only | Print | Product List | Glossary Off
Versions: 1 2 3 4 5 6 7 8 9 10 11 12 13 14 15 16 17 18 19

973
FTUS43 KTOP 300833 AAB
TAFTOP
TAF AMD
KTOP 300833Z 3009/0106 08011KT 2SM -SHRA VCTS BKN004 OVC012CB
     FM301300 15008KT 4SM BR SCT004 BKN009
     FM301600 22010KT P6SM SCT009 OVC015
     FM302000 25009KT P6SM SCT040 BKN060=

USA.gov is the U.S. government's official web portal to all federal, state and local government web resources and services.